ANZ948 YSSY-YSCB
Flight info
| Callsign | ANZ948 |
|---|---|
| Flight time | 0h 35m |
| Altitude | 16000 |
| Route | WOL H65 CB |
| Aircraft | A20N/M-SDE2E3FGHIRWXY/LB1 |
Departure
| Time | 2026-04-30 02:57 |
|---|---|
| Airport | Sydney Kingsford Smith International Airport (YSSY) |
Arrival
| Time | 2026-04-30 03:33 |
|---|---|
| Airport | Canberra Airport (YSCB) |
| Time | Latitude | Longitude | Altitude | Speed | Heading |
|---|---|---|---|---|---|
| 2026-04-30 02:19 | -33.93828 | 151.16849 | 24 ft | 0 kts | 70° |
| 2026-04-30 02:39 | -33.93831 | 151.16838 | 24 ft | 2 kts | 70° |
| 2026-04-30 02:40 | -33.93837 | 151.16819 | 24 ft | 2 kts | 70° |
| 2026-04-30 02:40 | -33.93843 | 151.16800 | 24 ft | 3 kts | 73° |
| 2026-04-30 02:40 | -33.93844 | 151.16779 | 24 ft | 3 kts | 110° |
| 2026-04-30 02:40 | -33.93836 | 151.16760 | 28 ft | 2 kts | 119° |
| 2026-04-30 02:41 | -33.93835 | 151.16757 | 27 ft | 2 kts | 122° |
| 2026-04-30 02:41 | -33.93823 | 151.16742 | 25 ft | 2 kts | 160° |
| 2026-04-30 02:41 | -33.93823 | 151.16743 | 25 ft | 0 kts | 160° |
| 2026-04-30 02:44 | -33.93824 | 151.16743 | 25 ft | 0 kts | 160° |
| 2026-04-30 02:44 | -33.93845 | 151.16749 | 33 ft | 6 kts | 169° |
| 2026-04-30 02:44 | -33.93910 | 151.16765 | 24 ft | 13 kts | 166° |
| 2026-04-30 02:45 | -33.93992 | 151.16793 | 24 ft | 0 kts | 164° |
| 2026-04-30 02:45 | -33.94006 | 151.16798 | 24 ft | 6 kts | 163° |
| 2026-04-30 02:45 | -33.94051 | 151.16844 | 24 ft | 12 kts | 105° |
| 2026-04-30 02:45 | -33.94035 | 151.16957 | 24 ft | 16 kts | 73° |
| 2026-04-30 02:46 | -33.93998 | 151.17106 | 22 ft | 21 kts | 75° |
| 2026-04-30 02:46 | -33.93959 | 151.17281 | 21 ft | 10 kts | 75° |
| 2026-04-30 02:46 | -33.93957 | 151.17289 | 21 ft | 1 kts | 75° |
| 2026-04-30 02:46 | -33.93954 | 151.17304 | 21 ft | 2 kts | 75° |
| 2026-04-30 02:47 | -33.93954 | 151.17305 | 22 ft | 0 kts | 74° |
| 2026-04-30 02:48 | -33.93953 | 151.17309 | 21 ft | 1 kts | 75° |
| 2026-04-30 02:48 | -33.93949 | 151.17329 | 21 ft | 6 kts | 75° |
| 2026-04-30 02:48 | -33.93931 | 151.17409 | 21 ft | 14 kts | 75° |
| 2026-04-30 02:49 | -33.93899 | 151.17546 | 22 ft | 20 kts | 74° |
| 2026-04-30 02:49 | -33.93869 | 151.17732 | 25 ft | 24 kts | 107° |
| 2026-04-30 02:49 | -33.94024 | 151.17812 | 30 ft | 28 kts | 169° |
| 2026-04-30 02:49 | -33.94232 | 151.17868 | 28 ft | 33 kts | 169° |
| 2026-04-30 02:50 | -33.94456 | 151.17902 | 27 ft | 32 kts | 195° |
| 2026-04-30 02:50 | -33.94673 | 151.17922 | 27 ft | 31 kts | 167° |
| 2026-04-30 02:50 | -33.94886 | 151.17978 | 25 ft | 32 kts | 167° |
| 2026-04-30 02:50 | -33.95083 | 151.18058 | 29 ft | 29 kts | 126° |
| 2026-04-30 02:51 | -33.95069 | 151.18289 | 27 ft | 28 kts | 78° |
| 2026-04-30 02:51 | -33.95063 | 151.18501 | 29 ft | 18 kts | 121° |
| 2026-04-30 02:51 | -33.95068 | 151.18512 | 29 ft | 0 kts | 121° |
| 2026-04-30 02:51 | -33.95069 | 151.18512 | 29 ft | 1 kts | 123° |
| 2026-04-30 02:52 | -33.95071 | 151.18515 | 29 ft | 0 kts | 132° |
| 2026-04-30 02:52 | -33.95101 | 151.18542 | 28 ft | 9 kts | 144° |
| 2026-04-30 02:52 | -33.95157 | 151.18595 | 26 ft | 14 kts | 138° |
| 2026-04-30 02:52 | -33.95277 | 151.18703 | 28 ft | 29 kts | 155° |
| 2026-04-30 02:53 | -33.95521 | 151.18775 | 26 ft | 43 kts | 167° |
| 2026-04-30 02:53 | -33.95847 | 151.18861 | 28 ft | 51 kts | 167° |
| 2026-04-30 02:53 | -33.96191 | 151.18952 | 27 ft | 50 kts | 168° |
| 2026-04-30 02:53 | -33.96533 | 151.19044 | 21 ft | 51 kts | 168° |
| 2026-04-30 02:54 | -33.96883 | 151.19085 | 20 ft | 50 kts | 169° |
| 2026-04-30 02:54 | -33.97126 | 151.19212 | 23 ft | 15 kts | 94° |
| 2026-04-30 02:54 | -33.97123 | 151.19257 | 24 ft | 0 kts | 79° |
| 2026-04-30 02:56 | -33.97119 | 151.19282 | 26 ft | 7 kts | 77° |
| 2026-04-30 02:56 | -33.97067 | 151.19366 | 25 ft | 16 kts | 17° |
| 2026-04-30 02:56 | -33.97026 | 151.19365 | 24 ft | 0 kts | 351° |
| 2026-04-30 02:57 | -33.96919 | 151.19343 | 23 ft | 49 kts | 349° |
| 2026-04-30 02:57 | -33.96307 | 151.19183 | 27 ft | 131 kts | 347° |
| 2026-04-30 02:57 | -33.95224 | 151.18921 | 348 ft | 174 kts | 352° |
| 2026-04-30 02:57 | -33.93980 | 151.18739 | 1157 ft | 187 kts | 8° |
| 2026-04-30 02:58 | -33.92846 | 151.19470 | 1994 ft | 199 kts | 51° |
| 2026-04-30 02:58 | -33.92433 | 151.21100 | 2788 ft | 216 kts | 95° |
| 2026-04-30 02:58 | -33.93033 | 151.22765 | 3732 ft | 222 kts | 123° |
| 2026-04-30 02:58 | -33.93870 | 151.24346 | 4470 ft | 230 kts | 106° |
| 2026-04-30 02:59 | -33.94063 | 151.26307 | 4873 ft | 252 kts | 88° |
| 2026-04-30 02:59 | -33.93976 | 151.28492 | 4962 ft | 261 kts | 85° |
| 2026-04-30 02:59 | -33.93851 | 151.30649 | 4973 ft | 262 kts | 85° |
| 2026-04-30 02:59 | -33.93738 | 151.32832 | 4967 ft | 261 kts | 85° |
| 2026-04-30 03:00 | -33.93641 | 151.35016 | 4971 ft | 261 kts | 86° |
| 2026-04-30 03:00 | -33.93555 | 151.37193 | 4971 ft | 260 kts | 86° |
| 2026-04-30 03:00 | -33.93474 | 151.39371 | 4976 ft | 260 kts | 86° |
| 2026-04-30 03:00 | -33.93397 | 151.41546 | 4972 ft | 260 kts | 86° |
| 2026-04-30 03:01 | -33.93321 | 151.43724 | 4971 ft | 260 kts | 86° |
| 2026-04-30 03:01 | -33.93246 | 151.45901 | 4973 ft | 260 kts | 86° |
| 2026-04-30 03:01 | -33.93194 | 151.48074 | 5047 ft | 261 kts | 91° |
| 2026-04-30 03:01 | -33.93361 | 151.49544 | 5381 ft | 265 kts | 104° |
| 2026-04-30 03:02 | -33.94202 | 151.51519 | 6327 ft | 268 kts | 127° |
| 2026-04-30 03:02 | -33.95629 | 151.52964 | 7316 ft | 272 kts | 152° |
| 2026-04-30 03:02 | -33.97472 | 151.53529 | 8239 ft | 279 kts | 176° |
| 2026-04-30 03:02 | -33.99424 | 151.53400 | 9144 ft | 284 kts | 186° |
| 2026-04-30 03:03 | -34.01388 | 151.52993 | 10045 ft | 289 kts | 192° |
| 2026-04-30 03:03 | -34.04725 | 151.50022 | 10993 ft | 328 kts | 232° |
| 2026-04-30 03:03 | -34.06157 | 151.47777 | 11401 ft | 346 kts | 232° |
| 2026-04-30 03:04 | -34.07677 | 151.45470 | 12110 ft | 354 kts | 231° |
| 2026-04-30 03:04 | -34.09237 | 151.43204 | 12926 ft | 358 kts | 230° |
| 2026-04-30 03:04 | -34.10882 | 151.40881 | 13747 ft | 361 kts | 230° |
| 2026-04-30 03:04 | -34.12541 | 151.38579 | 14487 ft | 366 kts | 230° |
| 2026-04-30 03:05 | -34.14225 | 151.36260 | 15151 ft | 369 kts | 230° |
| 2026-04-30 03:05 | -34.15911 | 151.33949 | 15792 ft | 373 kts | 229° |
| 2026-04-30 03:05 | -34.17656 | 151.31561 | 16263 ft | 375 kts | 229° |
| 2026-04-30 03:05 | -34.19368 | 151.29221 | 16411 ft | 381 kts | 229° |
| 2026-04-30 03:06 | -34.21138 | 151.26801 | 16427 ft | 386 kts | 229° |
| 2026-04-30 03:06 | -34.22920 | 151.24365 | 16428 ft | 387 kts | 229° |
| 2026-04-30 03:06 | -34.24704 | 151.21923 | 16427 ft | 388 kts | 229° |
| 2026-04-30 03:06 | -34.26488 | 151.19481 | 16429 ft | 388 kts | 229° |
| 2026-04-30 03:07 | -34.28271 | 151.17037 | 16426 ft | 388 kts | 229° |
| 2026-04-30 03:07 | -34.30057 | 151.14590 | 16424 ft | 388 kts | 229° |
| 2026-04-30 03:07 | -34.31839 | 151.12144 | 16424 ft | 388 kts | 229° |
| 2026-04-30 03:07 | -34.33624 | 151.09694 | 16426 ft | 388 kts | 229° |
| 2026-04-30 03:08 | -34.35408 | 151.07242 | 16427 ft | 388 kts | 229° |
| 2026-04-30 03:08 | -34.37191 | 151.04791 | 16427 ft | 388 kts | 229° |
| 2026-04-30 03:08 | -34.38974 | 151.02338 | 16427 ft | 388 kts | 229° |
| 2026-04-30 03:08 | -34.40760 | 150.99879 | 16427 ft | 388 kts | 229° |
| 2026-04-30 03:09 | -34.42543 | 150.97423 | 16426 ft | 388 kts | 229° |
| 2026-04-30 03:09 | -34.44324 | 150.94967 | 16426 ft | 388 kts | 229° |
| 2026-04-30 03:09 | -34.46105 | 150.92510 | 16425 ft | 388 kts | 229° |
| 2026-04-30 03:09 | -34.47885 | 150.90051 | 16424 ft | 388 kts | 229° |
| 2026-04-30 03:10 | -34.49667 | 150.87589 | 16429 ft | 388 kts | 229° |
| 2026-04-30 03:10 | -34.51450 | 150.85125 | 16428 ft | 388 kts | 229° |
| 2026-04-30 03:10 | -34.53230 | 150.82661 | 16427 ft | 389 kts | 229° |
| 2026-04-30 03:10 | -34.55013 | 150.80192 | 16426 ft | 389 kts | 229° |
| 2026-04-30 03:11 | -34.56702 | 150.77630 | 16425 ft | 389 kts | 233° |
| 2026-04-30 03:11 | -34.58308 | 150.74994 | 16424 ft | 389 kts | 234° |
| 2026-04-30 03:11 | -34.59902 | 150.72340 | 16425 ft | 389 kts | 234° |
| 2026-04-30 03:11 | -34.61498 | 150.69681 | 16420 ft | 389 kts | 234° |
| 2026-04-30 03:12 | -34.63091 | 150.67030 | 16420 ft | 389 kts | 234° |
| 2026-04-30 03:12 | -34.64687 | 150.64373 | 16423 ft | 389 kts | 234° |
| 2026-04-30 03:12 | -34.66285 | 150.61716 | 16420 ft | 390 kts | 234° |
| 2026-04-30 03:12 | -34.67881 | 150.59060 | 16421 ft | 390 kts | 234° |
| 2026-04-30 03:13 | -34.69480 | 150.56398 | 16423 ft | 390 kts | 234° |
| 2026-04-30 03:13 | -34.71076 | 150.53739 | 16419 ft | 389 kts | 234° |
| 2026-04-30 03:13 | -34.72671 | 150.51080 | 16421 ft | 390 kts | 234° |
| 2026-04-30 03:13 | -34.74266 | 150.48419 | 16420 ft | 390 kts | 234° |
| 2026-04-30 03:14 | -34.75862 | 150.45756 | 16420 ft | 390 kts | 234° |
| 2026-04-30 03:14 | -34.77457 | 150.43090 | 16416 ft | 390 kts | 234° |
| 2026-04-30 03:14 | -34.79032 | 150.40457 | 16417 ft | 390 kts | 234° |
| 2026-04-30 03:14 | -34.80648 | 150.37753 | 16416 ft | 390 kts | 234° |
| 2026-04-30 03:15 | -34.82241 | 150.35086 | 16409 ft | 390 kts | 234° |
| 2026-04-30 03:15 | -34.83836 | 150.32413 | 16411 ft | 390 kts | 234° |
| 2026-04-30 03:15 | -34.85408 | 150.29778 | 16411 ft | 390 kts | 234° |
| 2026-04-30 03:15 | -34.87000 | 150.27106 | 16412 ft | 390 kts | 234° |
| 2026-04-30 03:16 | -34.88594 | 150.24430 | 16412 ft | 390 kts | 234° |
| 2026-04-30 03:16 | -34.90185 | 150.21755 | 16410 ft | 390 kts | 234° |
| 2026-04-30 03:16 | -34.91774 | 150.19082 | 16411 ft | 390 kts | 234° |
| 2026-04-30 03:16 | -34.93364 | 150.16407 | 16411 ft | 390 kts | 234° |
| 2026-04-30 03:17 | -34.94953 | 150.13730 | 16412 ft | 390 kts | 234° |
| 2026-04-30 03:17 | -34.96540 | 150.11055 | 16411 ft | 390 kts | 234° |
| 2026-04-30 03:17 | -34.98127 | 150.08377 | 16413 ft | 390 kts | 234° |
| 2026-04-30 03:17 | -34.99719 | 150.05691 | 16407 ft | 390 kts | 234° |
| 2026-04-30 03:18 | -35.01308 | 150.03006 | 16409 ft | 390 kts | 234° |
| 2026-04-30 03:18 | -35.02895 | 150.00322 | 16410 ft | 390 kts | 234° |
| 2026-04-30 03:18 | -35.04484 | 149.97636 | 16408 ft | 390 kts | 234° |
| 2026-04-30 03:18 | -35.06196 | 149.95070 | 16409 ft | 390 kts | 228° |
| 2026-04-30 03:19 | -35.08041 | 149.92636 | 16411 ft | 390 kts | 227° |
| 2026-04-30 03:19 | -35.09910 | 149.90232 | 16411 ft | 389 kts | 226° |
| 2026-04-30 03:19 | -35.11758 | 149.87860 | 16413 ft | 382 kts | 226° |
| 2026-04-30 03:19 | -35.13581 | 149.85515 | 16414 ft | 380 kts | 226° |
| 2026-04-30 03:20 | -35.15397 | 149.83174 | 16409 ft | 380 kts | 227° |
| 2026-04-30 03:20 | -35.17213 | 149.80831 | 16409 ft | 380 kts | 227° |
| 2026-04-30 03:20 | -35.19029 | 149.78483 | 16410 ft | 380 kts | 227° |
| 2026-04-30 03:20 | -35.20841 | 149.76139 | 16411 ft | 380 kts | 227° |
| 2026-04-30 03:21 | -35.22655 | 149.73790 | 16410 ft | 379 kts | 227° |
| 2026-04-30 03:21 | -35.24465 | 149.71444 | 16299 ft | 379 kts | 227° |
| 2026-04-30 03:21 | -35.26264 | 149.69111 | 16111 ft | 371 kts | 227° |
| 2026-04-30 03:21 | -35.28002 | 149.66857 | 16000 ft | 358 kts | 227° |
| 2026-04-30 03:22 | -35.29697 | 149.64656 | 15479 ft | 356 kts | 227° |
| 2026-04-30 03:22 | -35.31400 | 149.62443 | 14867 ft | 358 kts | 227° |
| 2026-04-30 03:22 | -35.33113 | 149.60216 | 14306 ft | 360 kts | 227° |
| 2026-04-30 03:22 | -35.34834 | 149.57976 | 13687 ft | 362 kts | 228° |
| 2026-04-30 03:23 | -35.36560 | 149.55727 | 13093 ft | 362 kts | 227° |
| 2026-04-30 03:23 | -35.38276 | 149.53491 | 12529 ft | 359 kts | 228° |
| 2026-04-30 03:23 | -35.39978 | 149.51271 | 11971 ft | 356 kts | 228° |
| 2026-04-30 03:23 | -35.41656 | 149.49082 | 11640 ft | 346 kts | 228° |
| 2026-04-30 03:24 | -35.43271 | 149.46975 | 11432 ft | 333 kts | 228° |
| 2026-04-30 03:24 | -35.44855 | 149.44908 | 10888 ft | 332 kts | 228° |
| 2026-04-30 03:24 | -35.46431 | 149.42849 | 10431 ft | 329 kts | 228° |
| 2026-04-30 03:24 | -35.47976 | 149.40829 | 10144 ft | 319 kts | 228° |
| 2026-04-30 03:25 | -35.49463 | 149.38883 | 9953 ft | 306 kts | 228° |
| 2026-04-30 03:25 | -35.50888 | 149.37017 | 9785 ft | 294 kts | 229° |
| 2026-04-30 03:25 | -35.52256 | 149.35225 | 9620 ft | 282 kts | 229° |
| 2026-04-30 03:25 | -35.53569 | 149.33507 | 9498 ft | 270 kts | 229° |
| 2026-04-30 03:26 | -35.54731 | 149.31764 | 9362 ft | 258 kts | 241° |
| 2026-04-30 03:26 | -35.55409 | 149.29774 | 8976 ft | 254 kts | 258° |
| 2026-04-30 03:26 | -35.55732 | 149.27617 | 8375 ft | 260 kts | 264° |
| 2026-04-30 03:26 | -35.55975 | 149.25389 | 7876 ft | 264 kts | 265° |
| 2026-04-30 03:27 | -35.56079 | 149.23184 | 7685 ft | 253 kts | 279° |
| 2026-04-30 03:27 | -35.55477 | 149.21260 | 7616 ft | 234 kts | 309° |
| 2026-04-30 03:27 | -35.54245 | 149.20114 | 7528 ft | 217 kts | 335° |
| 2026-04-30 03:27 | -35.52846 | 149.19592 | 7438 ft | 204 kts | 349° |
| 2026-04-30 03:28 | -35.51474 | 149.19454 | 7323 ft | 193 kts | 358° |
| 2026-04-30 03:28 | -35.50147 | 149.19451 | 7113 ft | 188 kts | 359° |
| 2026-04-30 03:28 | -35.48874 | 149.19458 | 6906 ft | 178 kts | 359° |
| 2026-04-30 03:28 | -35.47670 | 149.19457 | 6715 ft | 166 kts | 358° |
| 2026-04-30 03:29 | -35.46574 | 149.19451 | 6491 ft | 155 kts | 358° |
| 2026-04-30 03:29 | -35.45507 | 149.19445 | 6123 ft | 153 kts | 358° |
| 2026-04-30 03:29 | -35.44439 | 149.19441 | 5684 ft | 156 kts | 358° |
| 2026-04-30 03:29 | -35.43344 | 149.19441 | 5261 ft | 157 kts | 358° |
| 2026-04-30 03:30 | -35.42245 | 149.19442 | 4806 ft | 158 kts | 359° |
| 2026-04-30 03:30 | -35.41180 | 149.19443 | 4531 ft | 148 kts | 359° |
| 2026-04-30 03:30 | -35.40189 | 149.19443 | 4300 ft | 138 kts | 359° |
| 2026-04-30 03:30 | -35.39244 | 149.19443 | 4066 ft | 135 kts | 359° |
| 2026-04-30 03:31 | -35.38287 | 149.19443 | 3785 ft | 141 kts | 359° |
| 2026-04-30 03:31 | -35.37280 | 149.19443 | 3310 ft | 148 kts | 359° |
| 2026-04-30 03:31 | -35.36241 | 149.19446 | 2865 ft | 150 kts | 360° |
| 2026-04-30 03:31 | -35.35193 | 149.19451 | 2398 ft | 151 kts | 359° |
| 2026-04-30 03:32 | -35.34166 | 149.19446 | 2159 ft | 141 kts | 358° |
| 2026-04-30 03:32 | -35.33217 | 149.19444 | 2093 ft | 137 kts | 358° |
| 2026-04-30 03:32 | -35.32266 | 149.19457 | 1953 ft | 136 kts | 358° |
| 2026-04-30 03:32 | -35.31350 | 149.19445 | 1880 ft | 133 kts | 357° |
| 2026-04-30 03:33 | -35.30606 | 149.19440 | 1880 ft | 85 kts | 359° |
| 2026-04-30 03:33 | -35.30217 | 149.19435 | 1884 ft | 37 kts | 327° |
| 2026-04-30 03:33 | -35.30163 | 149.19281 | 1881 ft | 14 kts | 262° |
| 2026-04-30 03:33 | -35.30214 | 149.19179 | 1882 ft | 0 kts | 220° |
| 2026-04-30 03:34 | -35.30217 | 149.19177 | 1878 ft | 1 kts | 220° |
| 2026-04-30 03:34 | -35.30220 | 149.19173 | 1880 ft | 1 kts | 220° |